アイウン の空港の天気 - METARとTAF

アイウン/ハッサン空港 ( GMML / EUN ) - 西サハラ アイウン
飛行場実況気象(Metar)
観測時間12/04 02:00 CET (12/04 01:00 UTC)
風向・風速北 2m/s
視程8000m
天気現象
全天の4割程度の雲 雲底高度 490m
気温17℃
湿度88%
気圧1018hPa
METARGMML 040100Z 36004KT 8000 SCT016 17/15 Q1018 NOSIG
過去の天気等 Google飛行場航空写真 Wunderground天気予報

過去48時間のMETAR

飛行場予報(TAF)
発表時間: 12/04 00:00 CET (12/03 23:00 UTC)
予報対象時間: 4日1時 CET ~ 5日7時 CET
風向・風速北北東 2m/s
視程6000m
少しの雲 雲底高度 610m
4日1時 CET から 確率 40% で
視程1500m
天気現象もや
4日1時 CET から 確率 40% で
全天の8割程度の雲 雲底高度 270m
TAF GMML 032300Z 0400/0506 03003KT 6000 FEW020
PROB40 0400/0408 1500 BR
PROB40 0400/0410 BKN009